Terminal Aerodrome Forecast
Issued by NWS Twin Cities, MN

Home | Current Version | Previous Version | Graphics & Text | Print | Product List | Glossary On
Versions: 1 2 3 4 5 6 7 8 9 10 11 12 13 14 15 16 17 18 19 20 21 22
000
FTUS43 KMPX 141459 AAA
TAFSTC
TAF AMD
KSTC 141459Z 1415/1512 09005KT P6SM OVC015
      TEMPO 1415/1417 BKN007
     FM142100 04003KT P6SM BKN035
     FM150200 04003KT P6SM SKC
     FM150500 00000KT 2SM BR SKC
     FM150700 00000KT 1/4SM FG VV002=

USA.gov is the U.S. government's official web portal to all federal, state and local government web resources and services.